St.peterburg Pilot — UAMI — position and weather

sailwx.info

Track history (hours):
 
Tides and Currents Weather Stations Pressure Air Temp Water Temp Dewpoint Dewpoint Depression Visibility Wind Speed Wind Dir Waves Ship Positions

St.peterburg Pilot

Last reported at 2017-May-25 17:48 UTC. Time now 2017-May-26 00:00 UTC.
Position N 60°00' E 029°38'.

Length 59 m; draft 3.8 m.

Type: Pilot. MMSI: 273436530.

Date/timePositionNaut miles runAvg speedWind from/ knotsBaromVisibWave heightAir tempDewpointWater temp
2017-May-25 17:48N 60°00' E 029°38'310.6
2017-May-25 17:29N 59°59' E 029°44'510.1
2017-May-25 17:00N 59°57' E 029°53'5 9.5
2017-May-25 16:30N 59°55' E 030°02'4 7.0
2017-May-25 16:00N 59°54' E 030°08'2 4.1
2017-May-25 15:28N 59°53' E 030°13'0 0.0
2017-May-25 14:57N 59°53' E 030°12'0 0.0
2017-May-25 14:28N 59°53' E 030°13'0 0.0
2017-May-25 13:29N 59°53' E 030°13'0 0.0
2017-May-25 12:58N 59°53' E 030°13'0 0.0
2017-May-25 12:29N 59°53' E 030°13'0 0.0
2017-May-25 12:00N 59°53' E 030°13'0 0.0
2017-May-25 11:29N 59°53' E 030°13'0 0.0
2017-May-25 10:54N 59°53' E 030°13'0 0.0
2017-May-25 10:30N 59°53' E 030°13'0 0.0
2017-May-25 09:57N 59°53' E 030°13'0 0.0
2017-May-25 09:25N 59°53' E 030°13'0 0.0
2017-May-25 09:00N 59°53' E 030°13'0 0.0
2017-May-25 08:24N 59°53' E 030°13'0 0.0
2017-May-25 07:58N 59°53' E 030°13'0 0.0
2017-May-25 07:27N 59°53' E 030°13'0 0.0
2017-May-25 06:59N 59°53' E 030°12'0 0.0
2017-May-25 06:24N 59°53' E 030°13'0 0.0
2017-May-25 06:00N 59°53' E 030°13'0 0.0
2017-May-25 05:25N 59°53' E 030°13'0 0.0
2017-May-25 04:55N 59°53' E 030°13'0 0.0
2017-May-25 04:29N 59°53' E 030°13'0 0.0
2017-May-25 03:58N 59°53' E 030°13'0 0.0
2017-May-25 03:28N 59°53' E 030°13'0 0.0
2017-May-25 02:59N 59°53' E 030°13'0 0.0
2017-May-25 02:29N 59°53' E 030°13'0 0.0
2017-May-25 01:58N 59°53' E 030°13'0 0.0
2017-May-25 01:30N 59°53' E 030°12'0 0.0
2017-May-25 00:54N 59°53' E 030°13'0 0.0
2017-May-25 00:25N 59°53' E 030°13'0 0.0
2017-May-24 23:58N 59°53' E 030°13'0 0.0
2017-May-24 23:28N 59°53' E 030°13'0 0.0
2017-May-24 22:55N 59°53' E 030°13'0 0.0
2017-May-24 22:28N 59°53' E 030°13'0 0.0
2017-May-24 21:59N 59°53' E 030°13'0 0.0
2017-May-24 21:23N 59°53' E 030°13'0 0.0
2017-May-24 20:57N 59°53' E 030°13'0 0.0
2017-May-24 20:29N 59°53' E 030°13'0 0.0
2017-May-24 20:00N 59°53' E 030°13'0 0.0
2017-May-24 19:22N 59°53' E 030°13'0 0.0
2017-May-24 18:53N 59°53' E 030°13'0 0.0
2017-May-24 18:29N 59°53' E 030°13'0 0.0
2017-May-24 17:59N 59°53' E 030°12'0 0.0
2017-May-24 17:25N 59°53' E 030°13'0 0.0
2017-May-24 16:59N 59°53' E 030°13'0 0.0
2017-May-24 16:30N 59°53' E 030°13'0 0.0
2017-May-24 15:59N 59°53' E 030°13'0 0.0
2017-May-24 15:30N 59°53' E 030°13'0 0.0
2017-May-24 14:53N 59°53' E 030°13'0 0.0
2017-May-24 14:30N 59°53' E 030°13'0 0.0
2017-May-24 13:29N 59°53' E 030°13'0 0.0
2017-May-24 12:58N 59°53' E 030°13'0 0.0
2017-May-24 12:30N 59°53' E 030°13'0 0.0
2017-May-24 11:59N 59°53' E 030°13'0 0.0
2017-May-24 11:25N 59°53' E 030°13'0 0.0
2017-May-24 10:59N 59°53' E 030°12'0 0.0
2017-May-24 10:29N 59°53' E 030°13'0 0.0
2017-May-24 09:58N 59°53' E 030°13'0 0.0
2017-May-24 09:22N 59°53' E 030°13'0 0.0
2017-May-24 08:58N 59°53' E 030°12'0 0.0
2017-May-24 08:23N 59°53' E 030°13'0 0.1
2017-May-24 07:57N 59°53' E 030°13'0 0.0
2017-May-24 07:30N 59°53' E 030°13'0 0.0
2017-May-24 07:00N 59°53' E 030°13'1 1.3
2017-May-24 06:30N 59°53' E 030°11'4 8.2
2017-May-24 06:00N 59°55' E 030°04'611.0
2017-May-24 05:30N 59°57' E 029°53'  
Track history (hours):
 
Tides and Currents Weather Stations Pressure Air Temp Water Temp Dewpoint Dewpoint Depression Visibility Wind Speed Wind Dir Waves Ship Positions

St.peterburg Pilot

Last reported at 2017-May-25 17:48 UTC. Time now 2017-May-26 00:00 UTC.
Position N 60°00' E 029°38'.

Length 59 m; draft 3.8 m.

Type: Pilot. MMSI: 273436530.

Date/timePositionNaut miles runAvg speedWind from/ knotsBaromVisibWave heightAir tempDewpointWater temp
2017-May-25 17:48N 60°00' E 029°38'310.6
2017-May-25 17:29N 59°59' E 029°44'510.1
2017-May-25 17:00N 59°57' E 029°53'5 9.5
2017-May-25 16:30N 59°55' E 030°02'4 7.0
2017-May-25 16:00N 59°54' E 030°08'2 4.1
2017-May-25 15:28N 59°53' E 030°13'0 0.0
2017-May-25 14:57N 59°53' E 030°12'0 0.0
2017-May-25 14:28N 59°53' E 030°13'0 0.0
2017-May-25 13:29N 59°53' E 030°13'0 0.0
2017-May-25 12:58N 59°53' E 030°13'0 0.0
2017-May-25 12:29N 59°53' E 030°13'0 0.0
2017-May-25 12:00N 59°53' E 030°13'0 0.0
2017-May-25 11:29N 59°53' E 030°13'0 0.0
2017-May-25 10:54N 59°53' E 030°13'0 0.0
2017-May-25 10:30N 59°53' E 030°13'0 0.0
2017-May-25 09:57N 59°53' E 030°13'0 0.0
2017-May-25 09:25N 59°53' E 030°13'0 0.0
2017-May-25 09:00N 59°53' E 030°13'0 0.0
2017-May-25 08:24N 59°53' E 030°13'0 0.0
2017-May-25 07:58N 59°53' E 030°13'0 0.0
2017-May-25 07:27N 59°53' E 030°13'0 0.0
2017-May-25 06:59N 59°53' E 030°12'0 0.0
2017-May-25 06:24N 59°53' E 030°13'0 0.0
2017-May-25 06:00N 59°53' E 030°13'0 0.0
2017-May-25 05:25N 59°53' E 030°13'0 0.0
2017-May-25 04:55N 59°53' E 030°13'0 0.0
2017-May-25 04:29N 59°53' E 030°13'0 0.0
2017-May-25 03:58N 59°53' E 030°13'0 0.0
2017-May-25 03:28N 59°53' E 030°13'0 0.0
2017-May-25 02:59N 59°53' E 030°13'0 0.0
2017-May-25 02:29N 59°53' E 030°13'0 0.0
2017-May-25 01:58N 59°53' E 030°13'0 0.0
2017-May-25 01:30N 59°53' E 030°12'0 0.0
2017-May-25 00:54N 59°53' E 030°13'0 0.0
2017-May-25 00:25N 59°53' E 030°13'0 0.0
2017-May-24 23:58N 59°53' E 030°13'0 0.0
2017-May-24 23:28N 59°53' E 030°13'0 0.0
2017-May-24 22:55N 59°53' E 030°13'0 0.0
2017-May-24 22:28N 59°53' E 030°13'0 0.0
2017-May-24 21:59N 59°53' E 030°13'0 0.0
2017-May-24 21:23N 59°53' E 030°13'0 0.0
2017-May-24 20:57N 59°53' E 030°13'0 0.0
2017-May-24 20:29N 59°53' E 030°13'0 0.0
2017-May-24 20:00N 59°53' E 030°13'0 0.0
2017-May-24 19:22N 59°53' E 030°13'0 0.0
2017-May-24 18:53N 59°53' E 030°13'0 0.0
2017-May-24 18:29N 59°53' E 030°13'0 0.0
2017-May-24 17:59N 59°53' E 030°12'0 0.0
2017-May-24 17:25N 59°53' E 030°13'0 0.0
2017-May-24 16:59N 59°53' E 030°13'0 0.0
2017-May-24 16:30N 59°53' E 030°13'0 0.0
2017-May-24 15:59N 59°53' E 030°13'0 0.0
2017-May-24 15:30N 59°53' E 030°13'0 0.0
2017-May-24 14:53N 59°53' E 030°13'0 0.0
2017-May-24 14:30N 59°53' E 030°13'0 0.0
2017-May-24 13:29N 59°53' E 030°13'0 0.0
2017-May-24 12:58N 59°53' E 030°13'0 0.0
2017-May-24 12:30N 59°53' E 030°13'0 0.0
2017-May-24 11:59N 59°53' E 030°13'0 0.0
2017-May-24 11:25N 59°53' E 030°13'0 0.0
2017-May-24 10:59N 59°53' E 030°12'0 0.0
2017-May-24 10:29N 59°53' E 030°13'0 0.0
2017-May-24 09:58N 59°53' E 030°13'0 0.0
2017-May-24 09:22N 59°53' E 030°13'0 0.0
2017-May-24 08:58N 59°53' E 030°12'0 0.0
2017-May-24 08:23N 59°53' E 030°13'0 0.1
2017-May-24 07:57N 59°53' E 030°13'0 0.0
2017-May-24 07:30N 59°53' E 030°13'0 0.0
2017-May-24 07:00N 59°53' E 030°13'1 1.3
2017-May-24 06:30N 59°53' E 030°11'4 8.2
2017-May-24 06:00N 59°55' E 030°04'611.0
2017-May-24 05:30N 59°57' E 029°53'  

Dump ship's entire track history